Time;durP1;ratioP1;P1;durP2;ratioP2;P2;SDS_P1;SDS_P2;PMS_P1;PMS_P2;Temp;Humidity;BMP_temperature;BMP_pressure;BME280_temperature;BME280_humidity;BME280_pressure;Samples;Min_cycle;Max_cycle;Signal;HPM_P1;HPM_P2
2021/07/17 00:01:23;;;;;;;44.27;20.20;;;18.00;99.90;;;;;;5069179;28;20379;-61
2021/07/17 00:03:48;;;;;;;34.13;19.90;;;18.10;99.90;;;;;;5069655;28;20734;-59
2021/07/17 00:06:14;;;;;;;39.23;20.17;;;18.00;99.90;;;;;;5070960;28;20946;-59
2021/07/17 00:08:40;;;;;;;38.13;20.73;;;18.00;99.90;;;;;;5072472;28;20915;-59
2021/07/17 00:11:06;;;;;;;38.95;20.60;;;18.10;99.90;;;;;;5071436;28;20383;-61
2021/07/17 00:13:31;;;;;;;37.17;20.70;;;18.10;99.90;;;;;;5072054;28;20376;-59
2021/07/17 00:15:58;;;;;;;34.47;19.17;;;18.10;99.90;;;;;;5071206;28;20403;-59
2021/07/17 00:18:24;;;;;;;41.65;19.92;;;18.00;99.90;;;;;;5072301;28;20384;-60
2021/07/17 00:20:50;;;;;;;34.47;19.17;;;17.90;99.90;;;;;;5071249;28;20780;-59
2021/07/17 00:23:17;;;;;;;37.90;19.98;;;17.90;99.90;;;;;;5071940;28;20387;-59
2021/07/17 00:25:45;;;;;;;38.15;19.08;;;17.90;99.90;;;;;;5071934;28;20448;-60
2021/07/17 00:28:10;;;;;;;39.10;19.88;;;17.80;99.90;;;;;;5070033;28;20795;-60
2021/07/17 00:30:36;;;;;;;38.15;19.65;;;17.80;99.90;;;;;;5071653;28;20408;-60
2021/07/17 00:33:03;;;;;;;39.80;20.20;;;17.80;99.90;;;;;;5071407;28;20857;-60
2021/07/17 00:35:28;;;;;;;39.42;21.40;;;17.70;99.90;;;;;;5071287;28;20834;-60
2021/07/17 00:37:54;;;;;;;38.67;21.30;;;17.70;99.90;;;;;;5069750;28;20400;-60
2021/07/17 00:40:20;;;;;;;41.55;20.50;;;17.70;99.90;;;;;;5071823;28;20391;-60
2021/07/17 00:42:48;;;;;;;40.20;21.52;;;17.60;99.90;;;;;;5071174;28;20376;-58
2021/07/17 00:45:14;;;;;;;43.40;21.65;;;17.60;99.90;;;;;;5071521;28;20486;-60
2021/07/17 00:47:39;;;;;;;41.33;22.00;;;17.50;99.90;;;;;;5071711;28;20467;-60
2021/07/17 00:50:07;;;;;;;46.58;21.95;;;17.40;99.90;;;;;;5070723;28;20483;-60
2021/07/17 00:52:34;;;;;;;43.00;22.10;;;17.40;99.90;;;;;;5071467;28;20388;-60
2021/07/17 00:55:01;;;;;;;41.95;20.25;;;17.50;99.90;;;;;;5070806;28;20857;-60
2021/07/17 00:57:29;;;;;;;42.17;23.27;;;17.40;99.90;;;;;;5071338;28;20379;-60
2021/07/17 00:59:59;;;;;;;45.95;20.67;;;17.40;99.90;;;;;;5070809;28;20773;-60
2021/07/17 01:02:25;;;;;;;39.55;20.73;;;17.40;99.90;;;;;;5071473;28;20861;-60
2021/07/17 01:04:53;;;;;;;42.63;22.85;;;17.30;99.90;;;;;;5070566;28;20462;-60
2021/07/17 01:07:19;;;;;;;48.33;23.92;;;17.30;99.90;;;;;;5071362;28;20391;-60
2021/07/17 01:09:45;;;;;;;41.42;22.33;;;17.30;99.90;;;;;;5070922;28;20408;-59
2021/07/17 01:12:10;;;;;;;52.47;24.38;;;17.30;99.90;;;;;;5070345;28;20446;-60
2021/07/17 01:14:38;;;;;;;40.47;21.93;;;17.20;99.90;;;;;;5079961;28;20737;-60
2021/07/17 01:17:04;;;;;;;45.40;22.75;;;17.20;99.90;;;;;;5072514;28;20407;-60
2021/07/17 01:19:29;;;;;;;43.42;22.60;;;17.30;99.90;;;;;;5088618;28;20897;-60
2021/07/17 01:21:58;;;;;;;40.17;20.70;;;17.50;99.90;;;;;;5090366;28;20378;-61
2021/07/17 01:24:24;;;;;;;40.17;21.70;;;17.50;99.90;;;;;;5091212;28;20420;-61
2021/07/17 01:26:52;;;;;;;40.60;20.55;;;17.60;99.90;;;;;;5090564;28;20417;-60
2021/07/17 01:29:18;;;;;;;42.10;22.15;;;17.40;99.90;;;;;;5079343;28;20475;-60
2021/07/17 01:31:45;;;;;;;49.27;24.40;;;17.20;99.90;;;;;;5070874;28;20934;-61
2021/07/17 01:34:12;;;;;;;47.33;23.52;;;17.00;99.90;;;;;;5070679;28;20387;-61
2021/07/17 01:36:38;;;;;;;45.53;22.65;;;17.10;99.90;;;;;;5070456;28;20461;-60
2021/07/17 01:39:05;;;;;;;46.07;23.90;;;17.10;99.90;;;;;;5069826;28;20803;-60
2021/07/17 01:41:31;;;;;;;49.35;24.83;;;17.10;99.90;;;;;;5070610;28;20926;-61
2021/07/17 01:43:57;;;;;;;43.45;21.95;;;17.00;99.90;;;;;;5069896;28;20379;-60
2021/07/17 01:46:26;;;;;;;53.40;24.83;;;17.10;99.90;;;;;;5070354;28;20398;-59
2021/07/17 01:48:56;;;;;;;46.10;23.45;;;17.10;99.90;;;;;;5068959;28;20490;-60
2021/07/17 01:51:22;;;;;;;46.50;23.85;;;17.10;99.90;;;;;;5070278;28;20433;-61
2021/07/17 01:53:49;;;;;;;46.53;23.40;;;17.10;99.90;;;;;;5069997;28;20375;-58
2021/07/17 01:56:15;;;;;;;52.30;24.17;;;17.10;99.90;;;;;;5070262;28;20403;-60
2021/07/17 01:58:42;;;;;;;46.38;23.30;;;17.00;99.90;;;;;;5070215;28;20376;-60
2021/07/17 02:01:08;;;;;;;47.20;23.42;;;17.00;99.90;;;;;;5069345;28;20729;-60
2021/07/17 02:03:36;;;;;;;48.30;23.65;;;16.90;99.90;;;;;;5070340;28;20380;-60
2021/07/17 02:06:03;;;;;;;51.10;24.85;;;16.90;99.90;;;;;;5069084;28;20395;-60
2021/07/17 02:08:28;;;;;;;55.50;26.10;;;16.90;99.90;;;;;;5070169;28;20383;-62
2021/07/17 02:10:54;;;;;;;49.83;24.20;;;16.90;99.90;;;;;;5069580;28;20807;-62
2021/07/17 02:13:20;;;;;;;49.80;24.00;;;16.90;99.90;;;;;;5069968;28;20387;-60
2021/07/17 02:15:49;;;;;;;52.75;25.88;;;16.90;99.90;;;;;;5069796;28;20400;-59
2021/07/17 02:18:21;;;;;;;50.95;24.92;;;16.30;99.90;;;;;;5069852;28;20387;-60
2021/07/17 02:20:47;;;;;;;52.22;25.25;;;16.90;99.90;;;;;;5069759;28;20375;-58
2021/07/17 02:23:13;;;;;;;51.50;25.30;;;16.90;99.90;;;;;;5069482;28;20433;-60
2021/07/17 02:25:38;;;;;;;53.60;24.73;;;16.80;99.90;;;;;;5069635;28;20462;-60
2021/07/17 02:28:05;;;;;;;53.67;24.90;;;16.90;99.90;;;;;;5068956;28;20387;-60
2021/07/17 02:30:31;;;;;;;54.05;26.65;;;17.00;99.90;;;;;;5069796;28;20388;-60
2021/07/17 02:32:57;;;;;;;54.30;25.90;;;17.00;99.90;;;;;;5068881;28;20851;-60
2021/07/17 02:35:23;;;;;;;48.35;24.10;;;17.00;99.90;;;;;;5069725;28;20491;-61
2021/07/17 02:37:49;;;;;;;48.07;24.80;;;17.10;99.90;;;;;;5069425;28;20609;-59
2021/07/17 02:40:14;;;;;;;49.30;23.77;;;17.20;99.90;;;;;;5069322;28;20415;-59
2021/07/17 02:42:40;;;;;;;45.47;23.73;;;17.20;99.90;;;;;;5069753;28;20412;-60
2021/07/17 02:45:07;;;;;;;45.63;23.58;;;17.20;99.90;;;;;;5068831;28;20379;-60
2021/07/17 02:47:34;;;;;;;45.80;23.80;;;17.20;99.90;;;;;;5070019;28;20483;-59
2021/07/17 02:50:00;;;;;;;49.25;23.50;;;17.20;99.90;;;;;;5068775;28;20425;-60
2021/07/17 02:52:26;;;;;;;52.93;25.17;;;17.10;99.90;;;;;;5069393;28;20375;-60
2021/07/17 02:54:51;;;;;;;52.13;25.10;;;17.20;99.90;;;;;;5068853;28;20391;-58
2021/07/17 02:57:17;;;;;;;51.90;25.50;;;17.20;99.90;;;;;;5069543;28;20899;-60
2021/07/17 02:59:42;;;;;;;49.40;25.90;;;17.20;99.90;;;;;;5069570;28;20379;-60
2021/07/17 03:02:08;;;;;;;50.08;26.58;;;17.20;99.90;;;;;;5068589;28;20501;-60
2021/07/17 03:04:34;;;;;;;54.05;24.48;;;17.10;99.90;;;;;;5069258;28;20411;-60
2021/07/17 03:06:59;;;;;;;50.73;25.40;;;17.10;99.90;;;;;;5068770;28;20400;-60
2021/07/17 03:09:25;;;;;;;49.83;25.60;;;17.10;99.90;;;;;;5069098;28;21252;-60
2021/07/17 03:11:51;;;;;;;54.63;26.25;;;17.10;99.90;;;;;;5068484;28;20463;-58
2021/07/17 03:14:18;;;;;;;52.30;26.10;;;17.10;99.90;;;;;;5069216;28;20850;-61
2021/07/17 03:16:43;;;;;;;52.25;26.73;;;17.00;99.90;;;;;;5069517;28;20407;-60
2021/07/17 03:19:09;;;;;;;48.35;25.27;;;17.00;99.90;;;;;;5067324;28;20445;-60
2021/07/17 03:21:35;;;;;;;47.30;24.20;;;17.10;99.90;;;;;;5069279;28;20695;-60
2021/07/17 03:24:01;;;;;;;53.45;25.30;;;17.10;99.90;;;;;;5068744;28;20383;-60
2021/07/17 03:26:26;;;;;;;56.50;26.05;;;17.10;99.90;;;;;;5069155;28;20455;-60
2021/07/17 03:28:53;;;;;;;55.80;26.60;;;18.10;99.90;;;;;;5066994;28;20814;-59
2021/07/17 03:31:29;;;;;;;52.13;26.33;;;17.00;99.90;;;;;;5069185;28;20823;-61
2021/07/17 03:33:56;;;;;;;53.83;25.83;;;17.00;99.90;;;;;;5068857;28;20419;-60
2021/07/17 03:36:22;;;;;;;53.90;25.63;;;17.10;99.90;;;;;;5067710;28;20419;-61
2021/07/17 03:38:48;;;;;;;57.40;25.73;;;17.20;99.90;;;;;;5070322;28;20387;-59
2021/07/17 03:41:13;;;;;;;50.95;25.17;;;17.20;99.90;;;;;;5072454;28;20756;-60
2021/07/17 03:43:39;;;;;;;53.27;25.53;;;17.20;99.90;;;;;;5072855;28;20403;-60
2021/07/17 03:46:05;;;;;;;50.63;25.37;;;17.30;99.90;;;;;;5071987;28;20388;-59
2021/07/17 03:48:30;;;;;;;51.35;28.08;;;17.20;99.90;;;;;;5072888;28;20780;-60
2021/07/17 03:50:56;;;;;;;51.65;25.45;;;17.20;99.90;;;;;;5072014;28;20429;-60
2021/07/17 03:53:21;;;;;;;46.90;24.80;;;17.20;99.90;;;;;;5072853;28;20493;-61
2021/07/17 03:55:47;;;;;;;49.70;25.37;;;17.20;99.90;;;;;;5072607;28;20487;-60
2021/07/17 03:58:13;;;;;;;53.25;27.42;;;17.30;99.90;;;;;;5071712;28;20736;-60
2021/07/17 04:00:38;;;;;;;49.03;26.25;;;17.40;99.90;;;;;;5083102;28;20433;-60
2021/07/17 04:03:04;;;;;;;50.00;25.30;;;17.40;99.90;;;;;;5071803;28;20420;-60
2021/07/17 04:05:30;;;;;;;45.38;24.95;;;17.50;99.90;;;;;;5081770;28;20398;-60
2021/07/17 04:07:57;;;;;;;52.47;25.67;;;17.50;99.90;;;;;;5090703;28;20785;-60
2021/07/17 04:10:23;;;;;;;46.30;26.02;;;17.50;99.90;;;;;;5081139;28;20540;-60
2021/07/17 04:12:49;;;;;;;49.15;24.85;;;17.50;99.90;;;;;;5071796;28;20375;-58
2021/07/17 04:15:15;;;;;;;57.40;26.90;;;17.50;99.90;;;;;;5073204;28;20754;-60
2021/07/17 04:17:40;;;;;;;52.25;25.75;;;17.50;99.90;;;;;;5073219;28;20411;-60
2021/07/17 04:20:08;;;;;;;48.15;25.50;;;17.40;99.90;;;;;;5071403;28;20778;-60
2021/07/17 04:22:34;;;;;;;53.95;25.77;;;17.40;99.90;;;;;;5071984;28;20384;-60
2021/07/17 04:25:02;;;;;;;48.88;25.55;;;17.50;99.90;;;;;;5080383;28;20429;-60
2021/07/17 04:27:28;;;;;;;57.95;26.63;;;17.50;99.90;;;;;;5091944;28;20859;-60
2021/07/17 04:29:53;;;;;;;46.78;25.35;;;17.40;99.90;;;;;;5091553;28;20374;-59
2021/07/17 04:32:19;;;;;;;47.10;25.92;;;17.40;99.90;;;;;;5092135;28;20381;-60
2021/07/17 04:34:45;;;;;;;48.37;24.80;;;17.40;99.90;;;;;;5091783;28;20782;-60
2021/07/17 04:37:15;;;;;;;46.73;25.23;;;17.50;99.90;;;;;;5089106;28;20402;-60
2021/07/17 04:39:40;;;;;;;52.95;25.98;;;17.50;99.90;;;;;;5071717;28;20904;-60
2021/07/17 04:42:06;;;;;;;49.47;26.33;;;17.40;99.90;;;;;;5069733;28;20380;-60
2021/07/17 04:44:32;;;;;;;46.85;24.90;;;17.40;99.90;;;;;;5071839;28;20408;-60
2021/07/17 04:46:57;;;;;;;45.27;25.23;;;17.40;99.90;;;;;;5070483;28;20443;-60
2021/07/17 04:49:23;;;;;;;49.63;24.50;;;17.50;99.90;;;;;;5071833;28;20400;-60
2021/07/17 04:51:49;;;;;;;50.70;25.38;;;17.50;99.90;;;;;;5071852;28;20884;-58
2021/07/17 04:54:15;;;;;;;48.28;25.27;;;17.50;99.90;;;;;;5071154;28;20415;-62
2021/07/17 04:56:40;;;;;;;46.90;24.60;;;17.50;99.90;;;;;;5071229;28;20491;-60
2021/07/17 04:59:06;;;;;;;49.17;25.63;;;17.40;99.90;;;;;;5070803;28;20880;-60
2021/07/17 05:01:32;;;;;;;46.20;25.70;;;17.50;99.90;;;;;;5070750;28;20443;-60
2021/07/17 05:03:57;;;;;;;46.90;24.40;;;17.50;99.90;;;;;;5071112;28;20411;-60
2021/07/17 05:06:23;;;;;;;45.80;24.30;;;17.50;99.90;;;;;;5088302;28;20393;-60
2021/07/17 05:08:48;;;;;;;45.83;24.67;;;17.50;99.90;;;;;;5080590;28;20873;-59
2021/07/17 05:11:14;;;;;;;45.50;23.37;;;17.50;99.90;;;;;;5070511;28;20376;-60
2021/07/17 05:13:39;;;;;;;45.13;24.63;;;17.60;99.90;;;;;;5071571;28;20447;-60
2021/07/17 05:16:05;;;;;;;48.37;24.10;;;17.60;99.90;;;;;;5070046;28;20410;-60
2021/07/17 05:18:32;;;;;;;43.08;22.80;;;17.70;99.90;;;;;;5070811;28;20425;-60
2021/07/17 05:20:58;;;;;;;41.70;23.97;;;17.60;99.90;;;;;;5084702;28;20383;-60
2021/07/17 05:23:24;;;;;;;44.45;23.70;;;17.70;99.90;;;;;;5091230;28;20385;-60
2021/07/17 05:25:51;;;;;;;45.47;24.58;;;17.80;99.90;;;;;;5090808;28;20390;-58
2021/07/17 05:28:17;;;;;;;43.35;22.75;;;17.90;99.90;;;;;;5090710;28;20386;-60
2021/07/17 05:30:43;;;;;;;42.95;24.08;;;18.00;99.90;;;;;;5090775;28;20386;-60
2021/07/17 05:33:10;;;;;;;42.63;24.30;;;17.90;99.90;;;;;;5089542;28;20467;-60
2021/07/17 05:35:36;;;;;;;41.92;22.13;;;17.90;99.90;;;;;;5090363;28;20413;-60
2021/07/17 05:38:02;;;;;;;41.55;22.85;;;17.80;99.90;;;;;;5089367;28;20394;-62
2021/07/17 05:40:28;;;;;;;42.80;23.33;;;17.90;99.90;;;;;;5090982;28;20390;-61
2021/07/17 05:42:54;;;;;;;36.60;21.88;;;18.00;99.90;;;;;;5090191;28;20485;-61
2021/07/17 05:45:19;;;;;;;37.63;21.90;;;18.00;99.90;;;;;;5089908;28;20406;-60
2021/07/17 05:47:45;;;;;;;40.92;22.58;;;18.10;99.90;;;;;;5089957;28;20483;-60
2021/07/17 05:50:12;;;;;;;41.03;22.33;;;18.10;99.90;;;;;;5084642;28;20612;-61
2021/07/17 05:52:38;;;;;;;37.83;22.20;;;18.20;99.90;;;;;;5084394;28;20394;-60
2021/07/17 05:55:05;;;;;;;40.08;20.98;;;18.30;99.90;;;;;;5089015;28;21069;-60
2021/07/17 05:57:33;;;;;;;36.10;20.58;;;18.30;99.90;;;;;;5089449;28;20405;-60
2021/07/17 05:59:59;;;;;;;38.33;21.05;;;18.40;99.90;;;;;;5088102;28;20393;-60
2021/07/17 06:02:26;;;;;;;37.55;20.52;;;18.40;99.90;;;;;;5087409;28;20755;-60
2021/07/17 06:04:53;;;;;;;32.53;19.83;;;18.40;99.90;;;;;;5089575;28;20930;-61
2021/07/17 06:07:18;;;;;;;35.55;20.30;;;17.20;99.90;;;;;;5089800;28;20401;-60
2021/07/17 06:09:44;;;;;;;32.00;19.77;;;18.40;99.90;;;;;;5089615;28;20755;-58
2021/07/17 06:12:10;;;;;;;36.27;20.67;;;18.50;99.90;;;;;;5089077;28;20389;-57
2021/07/17 06:14:37;;;;;;;33.67;19.45;;;18.70;99.90;;;;;;5089415;28;20374;-58
2021/07/17 06:17:03;;;;;;;39.97;20.40;;;18.70;99.90;;;;;;5088686;28;20431;-58
2021/07/17 06:19:29;;;;;;;33.33;19.50;;;18.80;99.90;;;;;;5087251;28;20405;-58
2021/07/17 06:21:55;;;;;;;32.30;19.42;;;18.70;99.90;;;;;;5088200;28;20383;-58
2021/07/17 06:24:21;;;;;;;34.03;18.40;;;18.70;99.90;;;;;;5087653;28;20393;-58
2021/07/17 06:26:46;;;;;;;34.08;19.02;;;18.80;99.90;;;;;;5089253;28;20716;-57
2021/07/17 06:29:12;;;;;;;30.70;19.50;;;18.90;99.90;;;;;;5086642;28;20867;-57
2021/07/17 06:31:38;;;;;;;30.70;19.27;;;19.10;99.90;;;;;;5088474;28;20370;-58
2021/07/17 06:34:04;;;;;;;33.63;18.47;;;19.20;99.90;;;;;;5088526;28;20477;-57
2021/07/17 06:36:31;;;;;;;32.00;19.27;;;19.20;99.90;;;;;;5088396;28;20413;-57
2021/07/17 06:38:56;;;;;;;33.35;19.52;;;19.20;99.90;;;;;;5087997;28;20388;-57
2021/07/17 06:41:22;;;;;;;32.08;18.88;;;18.90;99.90;;;;;;5091373;28;20386;-58
2021/07/17 06:43:48;;;;;;;32.42;19.80;;;19.00;99.90;;;;;;5089218;28;20394;-57
2021/07/17 06:46:15;;;;;;;33.70;20.67;;;19.10;99.90;;;;;;5088086;28;20389;-58
2021/07/17 06:48:41;;;;;;;29.35;18.20;;;19.20;99.90;;;;;;5089632;28;20374;-57
2021/07/17 06:51:08;;;;;;;36.83;19.30;;;19.30;99.90;;;;;;5102103;28;20868;-57
2021/07/17 06:53:35;;;;;;;33.55;18.95;;;19.30;99.90;;;;;;5098577;28;20522;-57
2021/07/17 06:56:01;;;;;;;30.65;19.10;;;19.30;99.90;;;;;;5089696;28;20398;-57
2021/07/17 06:58:26;;;;;;;30.07;18.60;;;19.20;99.90;;;;;;5069168;28;20745;-57
2021/07/17 07:00:52;;;;;;;31.07;18.63;;;19.30;99.90;;;;;;5117599;28;20391;-59
2021/07/17 07:03:17;;;;;;;33.63;19.13;;;19.70;99.90;;;;;;5087841;28;20388;-59
2021/07/17 07:05:43;;;;;;;33.73;19.27;;;19.30;99.90;;;;;;5086753;28;20547;-57
2021/07/17 07:08:09;;;;;;;32.40;19.13;;;19.30;99.90;;;;;;5087562;28;20385;-58
2021/07/17 07:10:34;;;;;;;32.27;18.77;;;19.20;99.90;;;;;;5086524;28;20923;-57
2021/07/17 07:13:08;;;;;;;31.70;18.52;;;19.30;99.90;;;;;;5088023;28;20852;-58
2021/07/17 07:15:33;;;;;;;32.25;19.33;;;19.20;99.90;;;;;;5093322;28;20497;-57
2021/07/17 07:17:59;;;;;;;32.28;18.38;;;19.20;99.90;;;;;;5091911;28;20806;-57
2021/07/17 07:20:25;;;;;;;35.73;19.60;;;19.30;99.90;;;;;;5092710;28;21061;-57
2021/07/17 07:22:50;;;;;;;31.47;18.70;;;19.30;99.90;;;;;;5092417;28;20465;-57
2021/07/17 07:25:16;;;;;;;31.40;18.80;;;19.40;99.90;;;;;;5092349;28;20461;-57
2021/07/17 07:27:42;;;;;;;30.58;18.63;;;19.30;99.90;;;;;;5092394;28;20459;-57
2021/07/17 07:30:08;;;;;;;37.43;20.73;;;19.30;99.90;;;;;;5085882;28;20406;-57
2021/07/17 07:32:34;;;;;;;31.67;18.20;;;19.30;99.90;;;;;;5074104;28;20452;-57
2021/07/17 07:34:59;;;;;;;32.27;17.67;;;19.60;99.90;;;;;;5081302;28;20497;-57
2021/07/17 07:37:27;;;;;;;32.10;18.50;;;19.70;99.90;;;;;;5080526;28;20415;-57
2021/07/17 07:39:54;;;;;;;30.75;17.60;;;19.60;99.90;;;;;;5072665;28;20387;-59
2021/07/17 07:42:20;;;;;;;31.00;17.30;;;19.80;99.90;;;;;;5088826;28;20524;-57
2021/07/17 07:44:46;;;;;;;29.30;18.08;;;19.90;99.90;;;;;;5093167;28;20469;-57
2021/07/17 07:47:11;;;;;;;29.85;17.50;;;20.00;99.90;;;;;;5091933;28;20386;-57
2021/07/17 07:49:37;;;;;;;28.20;17.40;;;19.80;99.90;;;;;;5092372;28;20374;-57
2021/07/17 07:52:03;;;;;;;27.03;16.93;;;19.90;99.90;;;;;;5091720;28;20370;-58
2021/07/17 07:54:29;;;;;;;29.15;18.23;;;19.90;99.90;;;;;;5092155;28;20375;-57
2021/07/17 07:56:54;;;;;;;31.37;17.90;;;20.00;99.90;;;;;;5092040;28;20518;-59
2021/07/17 07:59:20;;;;;;;30.57;18.10;;;20.10;99.90;;;;;;5092103;28;20382;-57
2021/07/17 08:01:46;;;;;;;28.00;16.98;;;20.10;99.90;;;;;;5092303;28;20378;-57
2021/07/17 08:04:11;;;;;;;29.17;17.98;;;20.20;99.90;;;;;;5091097;28;20397;-57
2021/07/17 08:06:37;;;;;;;28.47;16.90;;;20.10;99.90;;;;;;5092087;28;20390;-57
2021/07/17 08:09:03;;;;;;;30.58;17.98;;;20.20;99.90;;;;;;5090240;28;21307;-60
2021/07/17 08:11:29;;;;;;;27.38;16.50;;;20.30;99.90;;;;;;5090141;28;20385;-60
2021/07/17 08:13:55;;;;;;;24.63;15.30;;;20.70;99.90;;;;;;5078643;28;20447;-61
2021/07/17 08:16:21;;;;;;;28.42;17.13;;;20.90;99.90;;;;;;5083249;28;20411;-56
2021/07/17 08:18:47;;;;;;;30.33;17.30;;;20.50;99.90;;;;;;5081599;28;20384;-57
2021/07/17 08:21:12;;;;;;;27.75;18.17;;;20.40;99.90;;;;;;5082436;28;20903;-60
2021/07/17 08:23:38;;;;;;;26.57;16.73;;;20.50;99.90;;;;;;5102393;28;20390;-60
2021/07/17 08:26:04;;;;;;;25.77;16.17;;;20.80;99.90;;;;;;5092494;28;20402;-60
2021/07/17 08:28:29;;;;;;;27.38;16.17;;;20.80;99.90;;;;;;5102993;28;20381;-59
2021/07/17 08:30:55;;;;;;;25.17;15.75;;;20.80;99.90;;;;;;5090260;28;20848;-61
2021/07/17 08:33:21;;;;;;;24.83;16.30;;;20.70;99.90;;;;;;5103675;28;20475;-59
2021/07/17 08:35:46;;;;;;;27.13;16.33;;;20.70;99.90;;;;;;5110329;28;20480;-59
2021/07/17 08:38:12;;;;;;;24.77;16.33;;;20.60;99.90;;;;;;5104687;28;20390;-59
2021/07/17 08:40:38;;;;;;;26.73;16.70;;;20.60;99.90;;;;;;5089818;28;20382;-60
2021/07/17 08:43:04;;;;;;;25.52;15.77;;;20.70;99.90;;;;;;5092237;28;20446;-59
2021/07/17 08:45:30;;;;;;;26.83;16.52;;;20.80;99.90;;;;;;5079937;28;20473;-59
2021/07/17 08:47:57;;;;;;;26.83;16.30;;;20.80;99.90;;;;;;5077600;28;20396;-61
2021/07/17 08:50:27;;;;;;;29.35;16.08;;;20.80;99.90;;;;;;5078535;28;20388;-60
2021/07/17 08:52:57;;;;;;;26.55;15.32;;;20.90;99.90;;;;;;5078629;28;21101;-60
2021/07/17 08:55:26;;;;;;;30.13;15.30;;;21.10;99.90;;;;;;5104983;28;20875;-60
2021/07/17 08:57:52;;;;;;;23.90;16.10;;;20.30;99.90;;;;;;5099168;28;20396;-60
2021/07/17 09:00:23;;;;;;;27.45;15.60;;;21.00;99.90;;;;;;5095776;28;20394;-61
2021/07/17 09:02:56;;;;;;;26.77;15.35;;;21.00;99.90;;;;;;5090512;28;20952;-60
2021/07/17 09:05:25;;;;;;;27.95;14.85;;;21.10;99.90;;;;;;5088521;28;20488;-60
2021/07/17 09:07:51;;;;;;;24.20;15.10;;;21.20;99.90;;;;;;5087286;28;20390;-60
2021/07/17 09:10:44;;;;;;;27.05;16.27;;;21.30;99.90;;;;;;5022475;28;1821936;-60
2021/07/17 09:13:29;;;;;;;25.23;16.10;;;21.30;99.90;;;;;;5092073;28;20378;-60
2021/07/17 09:16:02;;;;;;;24.00;15.70;;;21.30;99.90;;;;;;5093085;28;20405;-61
2021/07/17 09:18:44;;;;;;;26.92;15.50;;;21.00;99.90;;;;;;5104327;28;20377;-60
2021/07/17 09:21:27;;;;;;;25.75;15.07;;;20.80;99.90;;;;;;5087310;28;20405;-60
2021/07/17 09:23:59;;;;;;;29.27;16.10;;;20.90;99.90;;;;;;5090996;28;20374;-61
2021/07/17 09:26:29;;;;;;;26.95;16.38;;;20.80;99.90;;;;;;5086459;28;20398;-60
2021/07/17 09:29:03;;;;;;;24.10;14.73;;;20.80;99.90;;;;;;5089630;28;20370;-62
2021/07/17 09:31:32;;;;;;;23.03;15.50;;;20.90;99.90;;;;;;5091029;28;20722;-60
2021/07/17 09:34:18;;;;;;;24.38;15.10;;;21.20;99.90;;;;;;5089758;28;20721;-61
2021/07/17 09:36:51;;;;;;;26.23;16.00;;;21.40;99.90;;;;;;5089635;28;20922;-61
2021/07/17 09:39:17;;;;;;;26.27;16.45;;;21.50;99.90;;;;;;5089694;28;20387;-61
2021/07/17 09:41:57;;;;;;;28.83;17.65;;;21.60;99.90;;;;;;5090610;28;20821;-61
2021/07/17 09:44:24;;;;;;;24.23;16.10;;;21.60;99.90;;;;;;5093450;28;20400;-61
2021/07/17 09:46:50;;;;;;;27.80;16.85;;;21.60;99.90;;;;;;5082423;28;20411;-60
2021/07/17 09:49:21;;;;;;;29.90;15.83;;;21.50;99.90;;;;;;5110391;28;20873;-60
2021/07/17 09:51:48;;;;;;;25.73;16.67;;;21.70;99.90;;;;;;5100222;28;20390;-61
2021/07/17 09:54:14;;;;;;;27.77;15.82;;;21.80;99.90;;;;;;5104836;28;20455;-60
2021/07/17 09:56:41;;;;;;;23.38;16.02;;;21.60;99.90;;;;;;5110740;28;20495;-60
2021/07/17 09:59:12;;;;;;;25.60;17.25;;;21.80;99.90;;;;;;5107107;28;20472;-61
2021/07/17 10:01:43;;;;;;;25.92;16.13;;;22.10;99.90;;;;;;5089228;28;20390;-60
2021/07/17 10:04:11;;;;;;;25.77;15.90;;;22.30;99.90;;;;;;5089186;28;20378;-60
2021/07/17 10:06:40;;;;;;;24.63;15.60;;;22.90;99.90;;;;;;5089835;28;20390;-60
2021/07/17 10:09:14;;;;;;;26.75;16.48;;;23.20;99.90;;;;;;5089015;28;20414;-60
2021/07/17 10:11:44;;;;;;;24.40;16.20;;;23.20;99.90;;;;;;5089706;28;20401;-60
2021/07/17 10:14:21;;;;;;;25.33;15.48;;;23.30;99.90;;;;;;5088954;28;20457;-59
2021/07/17 10:16:49;;;;;;;22.92;15.80;;;23.40;99.90;;;;;;5089086;28;20405;-59
2021/07/17 10:19:16;;;;;;;23.92;15.70;;;23.50;99.90;;;;;;5088463;28;21269;-60
2021/07/17 10:21:43;;;;;;;26.67;15.73;;;23.70;99.90;;;;;;5092087;28;20408;-60
2021/07/17 10:24:13;;;;;;;21.60;14.93;;;23.40;99.90;;;;;;5092157;28;20465;-59
2021/07/17 10:26:40;;;;;;;25.50;16.05;;;23.40;99.90;;;;;;5106051;28;20381;-60
2021/07/17 10:29:08;;;;;;;25.08;16.52;;;23.10;99.90;;;;;;5088303;28;20884;-59
2021/07/17 10:31:35;;;;;;;23.58;15.80;;;22.80;99.90;;;;;;5092552;28;20434;-60
2021/07/17 10:34:00;;;;;;;25.98;16.33;;;22.70;99.90;;;;;;5088831;28;20389;-60
2021/07/17 10:36:27;;;;;;;25.55;16.00;;;22.70;99.90;;;;;;5104725;28;20404;-59
2021/07/17 10:38:58;;;;;;;27.70;16.58;;;22.50;99.90;;;;;;5092771;28;20385;-61
2021/07/17 10:41:24;;;;;;;27.70;17.45;;;22.30;99.90;;;;;;5098153;28;20457;-61
2021/07/17 10:43:52;;;;;;;27.73;17.63;;;22.30;99.90;;;;;;5099144;28;20802;-60
2021/07/17 10:46:36;;;;;;;35.35;25.67;;;22.30;99.90;;;;;;5090579;28;20418;-60
2021/07/17 10:49:05;;;;;;;36.40;25.98;;;22.30;99.90;;;;;;5091798;28;20400;-60
2021/07/17 10:51:36;;;;;;;31.00;19.00;;;22.40;99.90;;;;;;5100484;28;20378;-61
2021/07/17 10:54:05;;;;;;;29.70;17.47;;;22.60;99.90;;;;;;5085566;28;20432;-60
2021/07/17 10:56:31;;;;;;;31.33;20.88;;;22.70;99.90;;;;;;5088881;28;20749;-60
2021/07/17 10:59:11;;;;;;;28.27;18.40;;;23.00;99.90;;;;;;5089301;28;20465;-61
2021/07/17 11:01:56;;;;;;;23.63;14.88;;;23.00;99.90;;;;;;5092127;28;20459;-59
2021/07/17 11:04:35;;;;;;;23.58;15.95;;;22.90;99.90;;;;;;5102109;28;20874;-60
2021/07/17 11:07:16;;;;;;;24.35;15.75;;;23.10;99.90;;;;;;5089826;28;20477;-60
2021/07/17 11:09:54;;;;;;;20.85;14.18;;;23.60;99.90;;;;;;5105484;28;20414;-60
2021/07/17 11:12:22;;;;;;;23.05;15.43;;;23.40;99.90;;;;;;5094033;28;20381;-60
2021/07/17 11:14:48;;;;;;;27.10;15.70;;;23.50;99.90;;;;;;5099162;28;20370;-60
2021/07/17 11:17:40;;;;;;;25.38;14.80;;;23.60;99.90;;;;;;5101855;28;20404;-60
2021/07/17 11:20:39;;;;;;;25.52;15.43;;;23.40;99.90;;;;;;5075656;28;20396;-60
2021/07/17 11:23:16;;;;;;;25.60;14.55;;;23.30;99.90;;;;;;5071591;28;20406;-60
2021/07/17 11:25:55;;;;;;;25.42;16.88;;;23.20;99.90;;;;;;5105148;28;20372;-60
2021/07/17 11:28:52;;;;;;;22.50;14.93;;;22.70;99.90;;;;;;5094187;28;20377;-61
2021/07/17 11:31:27;;;;;;;23.80;15.00;;;22.50;99.90;;;;;;5084990;28;20398;-59
2021/07/17 11:34:14;;;;;;;25.20;15.00;;;22.60;99.90;;;;;;5083449;28;20390;-60
2021/07/17 11:36:41;;;;;;;22.58;14.43;;;22.50;99.90;;;;;;5089731;28;20413;-60
2021/07/17 11:39:08;;;;;;;21.37;15.20;;;22.60;99.90;;;;;;5074586;28;20867;-58
2021/07/17 11:41:35;;;;;;;21.85;14.20;;;22.60;99.90;;;;;;5083516;28;20848;-65
2021/07/17 11:44:01;;;;;;;26.50;15.60;;;22.50;99.90;;;;;;5075553;28;20394;-65
2021/07/17 11:46:27;;;;;;;21.03;14.70;;;22.60;99.90;;;;;;5079426;28;20908;-65
2021/07/17 11:49:09;;;;;;;21.08;14.90;;;23.00;99.90;;;;;;5082193;28;20417;-65
2021/07/17 11:51:53;;;;;;;24.07;14.30;;;23.30;99.90;;;;;;5086835;28;20457;-65
2021/07/17 11:54:26;;;;;;;23.42;14.40;;;23.40;99.90;;;;;;5085782;28;20422;-66
2021/07/17 11:57:04;;;;;;;19.50;13.70;;;23.00;99.90;;;;;;5088445;28;20592;-65
2021/07/17 11:59:30;;;;;;;21.70;14.15;;;22.90;99.90;;;;;;5089034;28;20414;-66
2021/07/17 12:02:22;;;;;;;20.77;13.55;;;22.90;99.90;;;;;;5091585;28;20422;-60
2021/07/17 12:04:50;;;;;;;20.48;13.88;;;22.60;99.90;;;;;;5089070;28;20481;-65
2021/07/17 12:07:37;;;;;;;21.67;14.43;;;22.40;99.90;;;;;;5089947;28;20416;-65
2021/07/17 12:10:08;;;;;;;20.45;14.40;;;22.20;99.90;;;;;;5090548;28;20412;-65
2021/07/17 12:12:39;;;;;;;20.58;14.50;;;22.20;99.90;;;;;;5091951;28;20410;-66
2021/07/17 12:15:21;;;;;;;25.03;15.13;;;22.30;99.90;;;;;;5091224;28;20394;-66
2021/07/17 12:17:47;;;;;;;22.58;15.75;;;22.40;99.90;;;;;;5090892;28;20489;-66
2021/07/17 12:20:36;;;;;;;19.83;14.20;;;22.70;99.90;;;;;;5091940;28;20526;-65
2021/07/17 12:23:12;;;;;;;24.48;15.25;;;22.70;99.90;;;;;;5090246;28;20469;-65
2021/07/17 12:25:49;;;;;;;22.93;14.80;;;22.30;99.90;;;;;;5092254;28;20473;-65
2021/07/17 12:28:19;;;;;;;22.90;14.60;;;22.40;99.90;;;;;;5091542;28;20382;-65
2021/07/17 12:30:45;;;;;;;21.05;13.90;;;22.10;99.90;;;;;;5091670;28;20391;-66